sensor_id;sensor_type;location;lat;lon;timestamp;P1;durP1;ratioP1;P2;durP2;ratioP2
75379;SDS011;65641;44.714;37.756;2023-05-19T00:01:00;4.95;;;4.22;;
75379;SDS011;65641;44.714;37.756;2023-05-19T00:02:03;5.30;;;4.13;;
75379;SDS011;65641;44.714;37.756;2023-05-19T00:03:10;7.82;;;4.90;;
75379;SDS011;65641;44.714;37.756;2023-05-19T00:04:15;5.38;;;4.70;;
75379;SDS011;65641;44.714;37.756;2023-05-19T00:05:19;5.78;;;4.28;;
75379;SDS011;65641;44.714;37.756;2023-05-19T00:06:22;5.05;;;4.05;;
75379;SDS011;65641;44.714;37.756;2023-05-19T00:07:33;6.30;;;4.25;;
75379;SDS011;65641;44.714;37.756;2023-05-19T00:08:39;6.68;;;4.90;;
75379;SDS011;65641;44.714;37.756;2023-05-19T00:09:42;5.55;;;4.00;;
75379;SDS011;65641;44.714;37.756;2023-05-19T00:10:45;5.65;;;4.38;;
75379;SDS011;65641;44.714;37.756;2023-05-19T00:11:49;5.30;;;4.28;;
75379;SDS011;65641;44.714;37.756;2023-05-19T00:12:52;4.97;;;4.25;;
75379;SDS011;65641;44.714;37.756;2023-05-19T00:13:55;5.53;;;4.15;;
75379;SDS011;65641;44.714;37.756;2023-05-19T00:14:59;5.50;;;4.43;;
75379;SDS011;65641;44.714;37.756;2023-05-19T00:17:10;5.68;;;4.43;;
75379;SDS011;65641;44.714;37.756;2023-05-19T00:18:13;5.13;;;3.95;;
75379;SDS011;65641;44.714;37.756;2023-05-19T00:19:17;5.50;;;4.15;;
75379;SDS011;65641;44.714;37.756;2023-05-19T00:20:20;5.95;;;4.35;;
75379;SDS011;65641;44.714;37.756;2023-05-19T00:21:23;5.45;;;4.47;;
75379;SDS011;65641;44.714;37.756;2023-05-19T00:22:26;5.90;;;4.07;;
75379;SDS011;65641;44.714;37.756;2023-05-19T00:23:29;4.90;;;3.97;;
75379;SDS011;65641;44.714;37.756;2023-05-19T00:24:32;5.40;;;4.18;;
75379;SDS011;65641;44.714;37.756;2023-05-19T00:25:35;5.18;;;4.30;;
75379;SDS011;65641;44.714;37.756;2023-05-19T00:26:38;5.88;;;4.28;;
75379;SDS011;65641;44.714;37.756;2023-05-19T00:27:41;6.03;;;4.10;;
75379;SDS011;65641;44.714;37.756;2023-05-19T00:28:44;5.63;;;4.20;;
75379;SDS011;65641;44.714;37.756;2023-05-19T00:29:47;5.82;;;4.47;;
75379;SDS011;65641;44.714;37.756;2023-05-19T00:30:50;5.28;;;4.05;;
75379;SDS011;65641;44.714;37.756;2023-05-19T00:31:53;5.68;;;4.63;;
75379;SDS011;65641;44.714;37.756;2023-05-19T00:32:56;5.45;;;3.80;;
75379;SDS011;65641;44.714;37.756;2023-05-19T00:33:59;4.93;;;3.97;;
75379;SDS011;65641;44.714;37.756;2023-05-19T00:35:03;6.28;;;4.70;;
75379;SDS011;65641;44.714;37.756;2023-05-19T00:36:06;6.43;;;4.10;;
75379;SDS011;65641;44.714;37.756;2023-05-19T00:37:09;5.53;;;4.15;;
75379;SDS011;65641;44.714;37.756;2023-05-19T00:38:12;6.45;;;4.47;;
75379;SDS011;65641;44.714;37.756;2023-05-19T00:39:15;5.55;;;3.78;;
75379;SDS011;65641;44.714;37.756;2023-05-19T00:40:18;4.60;;;4.03;;
75379;SDS011;65641;44.714;37.756;2023-05-19T00:41:21;5.32;;;4.15;;
75379;SDS011;65641;44.714;37.756;2023-05-19T00:42:24;5.35;;;4.03;;
75379;SDS011;65641;44.714;37.756;2023-05-19T00:43:28;4.53;;;3.47;;
75379;SDS011;65641;44.714;37.756;2023-05-19T00:44:31;5.20;;;3.97;;
75379;SDS011;65641;44.714;37.756;2023-05-19T00:45:34;4.53;;;3.50;;
75379;SDS011;65641;44.714;37.756;2023-05-19T00:46:39;4.97;;;3.83;;
75379;SDS011;65641;44.714;37.756;2023-05-19T00:47:42;5.75;;;4.32;;
75379;SDS011;65641;44.714;37.756;2023-05-19T00:48:45;5.05;;;3.92;;
75379;SDS011;65641;44.714;37.756;2023-05-19T00:49:48;5.60;;;4.00;;
75379;SDS011;65641;44.714;37.756;2023-05-19T00:50:57;5.03;;;3.88;;
75379;SDS011;65641;44.714;37.756;2023-05-19T00:52:06;4.97;;;3.88;;
75379;SDS011;65641;44.714;37.756;2023-05-19T00:53:08;5.00;;;4.22;;
75379;SDS011;65641;44.714;37.756;2023-05-19T00:54:11;5.00;;;4.18;;
75379;SDS011;65641;44.714;37.756;2023-05-19T00:55:14;5.13;;;3.95;;
75379;SDS011;65641;44.714;37.756;2023-05-19T00:56:18;5.32;;;3.97;;
75379;SDS011;65641;44.714;37.756;2023-05-19T00:57:23;5.72;;;4.20;;
75379;SDS011;65641;44.714;37.756;2023-05-19T00:58:28;5.68;;;4.20;;
75379;SDS011;65641;44.714;37.756;2023-05-19T00:59:33;5.95;;;4.20;;
75379;SDS011;65641;44.714;37.756;2023-05-19T01:00:37;4.85;;;4.07;;
75379;SDS011;65641;44.714;37.756;2023-05-19T01:01:41;5.55;;;4.05;;
75379;SDS011;65641;44.714;37.756;2023-05-19T01:02:45;5.88;;;4.18;;
75379;SDS011;65641;44.714;37.756;2023-05-19T01:03:48;5.63;;;4.25;;
75379;SDS011;65641;44.714;37.756;2023-05-19T01:04:52;5.18;;;4.20;;
75379;SDS011;65641;44.714;37.756;2023-05-19T01:05:57;5.95;;;3.70;;
75379;SDS011;65641;44.714;37.756;2023-05-19T01:07:02;5.85;;;4.38;;
75379;SDS011;65641;44.714;37.756;2023-05-19T01:08:06;6.13;;;4.28;;
75379;SDS011;65641;44.714;37.756;2023-05-19T01:09:10;6.35;;;4.32;;
75379;SDS011;65641;44.714;37.756;2023-05-19T01:10:13;5.68;;;4.32;;
75379;SDS011;65641;44.714;37.756;2023-05-19T01:11:16;5.10;;;4.07;;
75379;SDS011;65641;44.714;37.756;2023-05-19T01:12:19;6.13;;;4.00;;
75379;SDS011;65641;44.714;37.756;2023-05-19T01:13:22;4.82;;;3.97;;
75379;SDS011;65641;44.714;37.756;2023-05-19T01:14:25;6.03;;;4.13;;
75379;SDS011;65641;44.714;37.756;2023-05-19T01:15:35;5.40;;;4.07;;
75379;SDS011;65641;44.714;37.756;2023-05-19T01:18:14;4.90;;;3.70;;
75379;SDS011;65641;44.714;37.756;2023-05-19T01:20:41;6.05;;;3.88;;
75379;SDS011;65641;44.714;37.756;2023-05-19T01:23:32;5.20;;;4.32;;
75379;SDS011;65641;44.714;37.756;2023-05-19T01:31:26;4.90;;;3.50;;
75379;SDS011;65641;44.714;37.756;2023-05-19T01:32:30;5.00;;;3.95;;
75379;SDS011;65641;44.714;37.756;2023-05-19T01:33:37;7.32;;;3.85;;
75379;SDS011;65641;44.714;37.756;2023-05-19T01:34:44;4.57;;;3.72;;
75379;SDS011;65641;44.714;37.756;2023-05-19T01:35:50;5.15;;;3.90;;
75379;SDS011;65641;44.714;37.756;2023-05-19T01:36:54;5.57;;;4.32;;
75379;SDS011;65641;44.714;37.756;2023-05-19T01:37:59;5.00;;;3.95;;
75379;SDS011;65641;44.714;37.756;2023-05-19T01:39:02;5.88;;;4.05;;
75379;SDS011;65641;44.714;37.756;2023-05-19T01:40:06;4.95;;;3.63;;
75379;SDS011;65641;44.714;37.756;2023-05-19T01:41:10;4.72;;;3.67;;
75379;SDS011;65641;44.714;37.756;2023-05-19T01:42:13;5.43;;;3.90;;
75379;SDS011;65641;44.714;37.756;2023-05-19T01:43:22;5.20;;;3.88;;
75379;SDS011;65641;44.714;37.756;2023-05-19T01:44:27;5.63;;;3.85;;
75379;SDS011;65641;44.714;37.756;2023-05-19T01:45:31;6.32;;;4.03;;
75379;SDS011;65641;44.714;37.756;2023-05-19T01:46:36;6.40;;;4.40;;
75379;SDS011;65641;44.714;37.756;2023-05-19T01:47:40;6.32;;;4.22;;
75379;SDS011;65641;44.714;37.756;2023-05-19T01:48:45;4.70;;;3.92;;
75379;SDS011;65641;44.714;37.756;2023-05-19T01:49:48;5.80;;;3.92;;
75379;SDS011;65641;44.714;37.756;2023-05-19T01:50:51;5.35;;;3.85;;
75379;SDS011;65641;44.714;37.756;2023-05-19T01:51:54;4.43;;;3.72;;
75379;SDS011;65641;44.714;37.756;2023-05-19T01:52:58;5.32;;;3.53;;
75379;SDS011;65641;44.714;37.756;2023-05-19T01:54:01;4.63;;;3.78;;
75379;SDS011;65641;44.714;37.756;2023-05-19T01:55:04;5.95;;;4.00;;
75379;SDS011;65641;44.714;37.756;2023-05-19T01:56:08;6.18;;;3.80;;
75379;SDS011;65641;44.714;37.756;2023-05-19T01:58:30;5.93;;;3.60;;
75379;SDS011;65641;44.714;37.756;2023-05-19T01:59:59;4.63;;;3.45;;
75379;SDS011;65641;44.714;37.756;2023-05-19T02:02:32;4.72;;;3.55;;
75379;SDS011;65641;44.714;37.756;2023-05-19T02:04:16;5.47;;;3.60;;
75379;SDS011;65641;44.714;37.756;2023-05-19T02:05:47;5.20;;;3.80;;
75379;SDS011;65641;44.714;37.756;2023-05-19T02:07:01;6.75;;;4.10;;
75379;SDS011;65641;44.714;37.756;2023-05-19T02:08:19;6.22;;;3.78;;
75379;SDS011;65641;44.714;37.756;2023-05-19T02:10:49;4.88;;;3.67;;
75379;SDS011;65641;44.714;37.756;2023-05-19T02:12:05;5.13;;;3.85;;
75379;SDS011;65641;44.714;37.756;2023-05-19T02:13:11;5.47;;;3.85;;
75379;SDS011;65641;44.714;37.756;2023-05-19T02:14:29;4.72;;;3.90;;
75379;SDS011;65641;44.714;37.756;2023-05-19T02:15:38;5.28;;;3.97;;
75379;SDS011;65641;44.714;37.756;2023-05-19T02:17:47;5.60;;;4.30;;
75379;SDS011;65641;44.714;37.756;2023-05-19T02:19:28;6.10;;;3.70;;
75379;SDS011;65641;44.714;37.756;2023-05-19T02:20:33;5.82;;;3.70;;
75379;SDS011;65641;44.714;37.756;2023-05-19T02:21:36;5.30;;;4.00;;
75379;SDS011;65641;44.714;37.756;2023-05-19T02:22:39;6.10;;;3.83;;
75379;SDS011;65641;44.714;37.756;2023-05-19T02:23:42;4.72;;;3.90;;
75379;SDS011;65641;44.714;37.756;2023-05-19T02:24:45;4.65;;;3.97;;
75379;SDS011;65641;44.714;37.756;2023-05-19T02:25:49;6.28;;;3.72;;
75379;SDS011;65641;44.714;37.756;2023-05-19T02:26:52;4.50;;;3.83;;
75379;SDS011;65641;44.714;37.756;2023-05-19T02:27:56;5.25;;;3.60;;
75379;SDS011;65641;44.714;37.756;2023-05-19T02:29:04;4.78;;;3.70;;
75379;SDS011;65641;44.714;37.756;2023-05-19T02:30:07;5.75;;;3.70;;
75379;SDS011;65641;44.714;37.756;2023-05-19T02:31:11;4.55;;;3.38;;
75379;SDS011;65641;44.714;37.756;2023-05-19T02:32:14;5.25;;;4.28;;
75379;SDS011;65641;44.714;37.756;2023-05-19T02:33:17;5.20;;;4.00;;
75379;SDS011;65641;44.714;37.756;2023-05-19T02:34:21;4.93;;;3.95;;
75379;SDS011;65641;44.714;37.756;2023-05-19T02:35:24;4.95;;;3.70;;
75379;SDS011;65641;44.714;37.756;2023-05-19T02:36:26;4.88;;;4.05;;
75379;SDS011;65641;44.714;37.756;2023-05-19T02:37:29;3.90;;;3.13;;
75379;SDS011;65641;44.714;37.756;2023-05-19T02:38:33;5.82;;;4.22;;
75379;SDS011;65641;44.714;37.756;2023-05-19T02:39:37;4.82;;;3.83;;
75379;SDS011;65641;44.714;37.756;2023-05-19T02:40:40;5.50;;;4.05;;
75379;SDS011;65641;44.714;37.756;2023-05-19T02:41:43;7.63;;;4.10;;
75379;SDS011;65641;44.714;37.756;2023-05-19T02:42:45;4.85;;;3.75;;
75379;SDS011;65641;44.714;37.756;2023-05-19T02:43:48;5.45;;;3.97;;
75379;SDS011;65641;44.714;37.756;2023-05-19T02:44:53;5.53;;;3.55;;
75379;SDS011;65641;44.714;37.756;2023-05-19T02:45:56;6.82;;;3.63;;
75379;SDS011;65641;44.714;37.756;2023-05-19T02:47:00;6.47;;;4.07;;
75379;SDS011;65641;44.714;37.756;2023-05-19T02:48:03;5.68;;;3.90;;
75379;SDS011;65641;44.714;37.756;2023-05-19T02:49:06;4.45;;;3.67;;
75379;SDS011;65641;44.714;37.756;2023-05-19T02:50:09;5.22;;;3.70;;
75379;SDS011;65641;44.714;37.756;2023-05-19T02:51:12;4.72;;;3.80;;
75379;SDS011;65641;44.714;37.756;2023-05-19T02:52:15;5.47;;;3.78;;
75379;SDS011;65641;44.714;37.756;2023-05-19T02:53:18;4.55;;;3.63;;
75379;SDS011;65641;44.714;37.756;2023-05-19T02:54:21;3.72;;;3.33;;
75379;SDS011;65641;44.714;37.756;2023-05-19T02:55:24;5.72;;;3.90;;
75379;SDS011;65641;44.714;37.756;2023-05-19T02:56:27;4.95;;;3.65;;
75379;SDS011;65641;44.714;37.756;2023-05-19T02:57:30;5.28;;;3.47;;
75379;SDS011;65641;44.714;37.756;2023-05-19T02:58:34;4.72;;;3.55;;
75379;SDS011;65641;44.714;37.756;2023-05-19T02:59:37;5.68;;;3.58;;
75379;SDS011;65641;44.714;37.756;2023-05-19T03:00:40;6.80;;;4.03;;
75379;SDS011;65641;44.714;37.756;2023-05-19T03:01:43;5.28;;;3.80;;
75379;SDS011;65641;44.714;37.756;2023-05-19T03:02:46;5.70;;;4.05;;
75379;SDS011;65641;44.714;37.756;2023-05-19T03:03:49;4.82;;;3.58;;
75379;SDS011;65641;44.714;37.756;2023-05-19T03:04:52;5.38;;;3.95;;
75379;SDS011;65641;44.714;37.756;2023-05-19T03:05:56;4.47;;;3.35;;
75379;SDS011;65641;44.714;37.756;2023-05-19T03:06:59;5.40;;;4.05;;
75379;SDS011;65641;44.714;37.756;2023-05-19T03:08:03;4.57;;;3.85;;
75379;SDS011;65641;44.714;37.756;2023-05-19T03:09:06;4.78;;;4.00;;
75379;SDS011;65641;44.714;37.756;2023-05-19T03:10:09;5.25;;;4.20;;
75379;SDS011;65641;44.714;37.756;2023-05-19T03:11:12;4.85;;;3.80;;
75379;SDS011;65641;44.714;37.756;2023-05-19T03:12:16;4.63;;;3.58;;
75379;SDS011;65641;44.714;37.756;2023-05-19T03:13:19;6.13;;;4.00;;
75379;SDS011;65641;44.714;37.756;2023-05-19T03:14:22;5.30;;;3.25;;
75379;SDS011;65641;44.714;37.756;2023-05-19T03:15:26;4.72;;;3.85;;
75379;SDS011;65641;44.714;37.756;2023-05-19T03:16:29;4.38;;;3.60;;
75379;SDS011;65641;44.714;37.756;2023-05-19T03:17:32;6.30;;;3.85;;
75379;SDS011;65641;44.714;37.756;2023-05-19T03:18:35;5.40;;;3.42;;
75379;SDS011;65641;44.714;37.756;2023-05-19T03:19:39;4.63;;;3.40;;
75379;SDS011;65641;44.714;37.756;2023-05-19T03:20:42;4.72;;;3.67;;
75379;SDS011;65641;44.714;37.756;2023-05-19T03:21:45;4.80;;;3.58;;
75379;SDS011;65641;44.714;37.756;2023-05-19T03:22:49;4.82;;;3.45;;
75379;SDS011;65641;44.714;37.756;2023-05-19T03:23:52;5.30;;;3.88;;
75379;SDS011;65641;44.714;37.756;2023-05-19T03:24:58;4.95;;;3.70;;
75379;SDS011;65641;44.714;37.756;2023-05-19T03:26:01;4.82;;;3.35;;
75379;SDS011;65641;44.714;37.756;2023-05-19T03:27:04;4.50;;;3.50;;
75379;SDS011;65641;44.714;37.756;2023-05-19T03:28:07;6.13;;;4.00;;
75379;SDS011;65641;44.714;37.756;2023-05-19T03:29:10;5.60;;;3.85;;
75379;SDS011;65641;44.714;37.756;2023-05-19T03:30:13;6.03;;;3.78;;
75379;SDS011;65641;44.714;37.756;2023-05-19T03:31:31;5.03;;;3.72;;
75379;SDS011;65641;44.714;37.756;2023-05-19T03:32:34;5.72;;;3.22;;
75379;SDS011;65641;44.714;37.756;2023-05-19T03:33:39;4.57;;;3.75;;
75379;SDS011;65641;44.714;37.756;2023-05-19T03:34:42;3.95;;;3.38;;
75379;SDS011;65641;44.714;37.756;2023-05-19T03:35:45;4.28;;;3.60;;
75379;SDS011;65641;44.714;37.756;2023-05-19T03:36:49;5.13;;;3.60;;
75379;SDS011;65641;44.714;37.756;2023-05-19T03:37:52;5.38;;;3.80;;
75379;SDS011;65641;44.714;37.756;2023-05-19T03:38:55;5.22;;;3.50;;
75379;SDS011;65641;44.714;37.756;2023-05-19T03:39:58;5.10;;;3.90;;
75379;SDS011;65641;44.714;37.756;2023-05-19T03:41:01;5.03;;;3.60;;
75379;SDS011;65641;44.714;37.756;2023-05-19T03:42:05;6.72;;;4.10;;
75379;SDS011;65641;44.714;37.756;2023-05-19T03:43:09;6.35;;;3.90;;
75379;SDS011;65641;44.714;37.756;2023-05-19T03:44:19;4.25;;;3.15;;
75379;SDS011;65641;44.714;37.756;2023-05-19T03:45:22;4.50;;;3.40;;
75379;SDS011;65641;44.714;37.756;2023-05-19T03:46:26;4.40;;;2.92;;
75379;SDS011;65641;44.714;37.756;2023-05-19T03:47:48;4.70;;;3.55;;
75379;SDS011;65641;44.714;37.756;2023-05-19T03:49:20;4.43;;;3.42;;
75379;SDS011;65641;44.714;37.756;2023-05-19T03:50:38;5.03;;;3.65;;
75379;SDS011;65641;44.714;37.756;2023-05-19T03:51:49;5.03;;;3.60;;
75379;SDS011;65641;44.714;37.756;2023-05-19T03:54:12;4.57;;;3.63;;
75379;SDS011;65641;44.714;37.756;2023-05-19T03:55:15;5.78;;;3.53;;
75379;SDS011;65641;44.714;37.756;2023-05-19T03:56:17;4.40;;;3.17;;
75379;SDS011;65641;44.714;37.756;2023-05-19T03:57:24;4.75;;;3.65;;
75379;SDS011;65641;44.714;37.756;2023-05-19T03:58:27;4.50;;;3.55;;
75379;SDS011;65641;44.714;37.756;2023-05-19T03:59:31;3.97;;;3.08;;
75379;SDS011;65641;44.714;37.756;2023-05-19T04:00:34;5.70;;;3.33;;
75379;SDS011;65641;44.714;37.756;2023-05-19T04:01:37;5.47;;;3.63;;
75379;SDS011;65641;44.714;37.756;2023-05-19T04:02:40;4.88;;;3.90;;
75379;SDS011;65641;44.714;37.756;2023-05-19T04:03:43;5.75;;;3.70;;
75379;SDS011;65641;44.714;37.756;2023-05-19T04:04:46;4.47;;;3.47;;
75379;SDS011;65641;44.714;37.756;2023-05-19T04:05:49;4.85;;;3.40;;
75379;SDS011;65641;44.714;37.756;2023-05-19T04:06:52;6.18;;;3.63;;
75379;SDS011;65641;44.714;37.756;2023-05-19T04:07:56;4.65;;;3.67;;
75379;SDS011;65641;44.714;37.756;2023-05-19T04:08:58;4.72;;;3.67;;
75379;SDS011;65641;44.714;37.756;2023-05-19T04:10:04;5.30;;;3.45;;
75379;SDS011;65641;44.714;37.756;2023-05-19T04:11:07;5.40;;;3.88;;
75379;SDS011;65641;44.714;37.756;2023-05-19T04:12:10;5.38;;;3.85;;
75379;SDS011;65641;44.714;37.756;2023-05-19T04:13:13;5.38;;;3.78;;
75379;SDS011;65641;44.714;37.756;2023-05-19T04:14:16;6.00;;;3.78;;
75379;SDS011;65641;44.714;37.756;2023-05-19T04:15:18;6.82;;;3.70;;
75379;SDS011;65641;44.714;37.756;2023-05-19T04:16:21;6.03;;;3.83;;
75379;SDS011;65641;44.714;37.756;2023-05-19T04:17:24;6.10;;;3.75;;
75379;SDS011;65641;44.714;37.756;2023-05-19T04:18:29;6.65;;;3.70;;
75379;SDS011;65641;44.714;37.756;2023-05-19T04:19:32;6.82;;;3.80;;
75379;SDS011;65641;44.714;37.756;2023-05-19T04:20:35;6.50;;;4.15;;
75379;SDS011;65641;44.714;37.756;2023-05-19T04:21:38;6.38;;;3.90;;
75379;SDS011;65641;44.714;37.756;2023-05-19T04:22:41;6.50;;;4.38;;
75379;SDS011;65641;44.714;37.756;2023-05-19T04:23:44;8.20;;;3.90;;
75379;SDS011;65641;44.714;37.756;2023-05-19T04:24:47;9.48;;;4.05;;
75379;SDS011;65641;44.714;37.756;2023-05-19T04:25:51;7.15;;;4.03;;
75379;SDS011;65641;44.714;37.756;2023-05-19T04:26:55;6.88;;;3.50;;
75379;SDS011;65641;44.714;37.756;2023-05-19T04:28:03;7.88;;;3.97;;
75379;SDS011;65641;44.714;37.756;2023-05-19T04:29:06;9.38;;;4.28;;
75379;SDS011;65641;44.714;37.756;2023-05-19T04:30:09;9.20;;;4.03;;
75379;SDS011;65641;44.714;37.756;2023-05-19T04:31:13;9.77;;;4.60;;
75379;SDS011;65641;44.714;37.756;2023-05-19T04:32:17;8.90;;;4.32;;
75379;SDS011;65641;44.714;37.756;2023-05-19T04:33:20;8.20;;;4.78;;
75379;SDS011;65641;44.714;37.756;2023-05-19T04:34:23;11.40;;;4.28;;
75379;SDS011;65641;44.714;37.756;2023-05-19T04:35:26;10.90;;;4.10;;
75379;SDS011;65641;44.714;37.756;2023-05-19T04:36:29;9.27;;;4.57;;
75379;SDS011;65641;44.714;37.756;2023-05-19T04:37:32;8.40;;;4.95;;
75379;SDS011;65641;44.714;37.756;2023-05-19T04:38:40;10.45;;;4.85;;
75379;SDS011;65641;44.714;37.756;2023-05-19T04:39:45;8.50;;;4.53;;
75379;SDS011;65641;44.714;37.756;2023-05-19T04:40:49;10.73;;;4.78;;
75379;SDS011;65641;44.714;37.756;2023-05-19T04:41:53;10.65;;;4.72;;
75379;SDS011;65641;44.714;37.756;2023-05-19T04:42:57;10.73;;;4.95;;
75379;SDS011;65641;44.714;37.756;2023-05-19T04:44:07;10.25;;;4.55;;
75379;SDS011;65641;44.714;37.756;2023-05-19T04:45:11;11.45;;;5.10;;
75379;SDS011;65641;44.714;37.756;2023-05-19T04:46:19;11.85;;;5.47;;
75379;SDS011;65641;44.714;37.756;2023-05-19T04:47:27;8.52;;;4.63;;
75379;SDS011;65641;44.714;37.756;2023-05-19T04:48:31;9.23;;;5.18;;
75379;SDS011;65641;44.714;37.756;2023-05-19T04:49:35;8.43;;;4.85;;
75379;SDS011;65641;44.714;37.756;2023-05-19T04:50:41;8.25;;;4.32;;
75379;SDS011;65641;44.714;37.756;2023-05-19T04:51:44;12.70;;;5.00;;
75379;SDS011;65641;44.714;37.756;2023-05-19T04:52:47;11.32;;;4.45;;
75379;SDS011;65641;44.714;37.756;2023-05-19T04:53:50;10.05;;;4.50;;
75379;SDS011;65641;44.714;37.756;2023-05-19T04:54:54;11.57;;;4.97;;
75379;SDS011;65641;44.714;37.756;2023-05-19T04:55:58;11.45;;;4.75;;
75379;SDS011;65641;44.714;37.756;2023-05-19T04:57:05;10.18;;;4.70;;
75379;SDS011;65641;44.714;37.756;2023-05-19T04:58:11;11.30;;;4.70;;
75379;SDS011;65641;44.714;37.756;2023-05-19T04:59:15;11.82;;;4.85;;
75379;SDS011;65641;44.714;37.756;2023-05-19T05:00:18;10.30;;;4.88;;
75379;SDS011;65641;44.714;37.756;2023-05-19T05:01:48;10.05;;;4.60;;
75379;SDS011;65641;44.714;37.756;2023-05-19T05:02:51;10.52;;;4.45;;
75379;SDS011;65641;44.714;37.756;2023-05-19T05:03:55;8.15;;;4.80;;
75379;SDS011;65641;44.714;37.756;2023-05-19T05:05:00;10.15;;;5.15;;
75379;SDS011;65641;44.714;37.756;2023-05-19T05:06:04;8.70;;;3.95;;
75379;SDS011;65641;44.714;37.756;2023-05-19T05:07:07;10.98;;;4.75;;
75379;SDS011;65641;44.714;37.756;2023-05-19T05:08:12;9.88;;;5.18;;
75379;SDS011;65641;44.714;37.756;2023-05-19T05:09:17;11.13;;;4.82;;
75379;SDS011;65641;44.714;37.756;2023-05-19T05:10:23;12.70;;;5.20;;
75379;SDS011;65641;44.714;37.756;2023-05-19T05:11:27;9.45;;;4.97;;
75379;SDS011;65641;44.714;37.756;2023-05-19T05:12:30;9.38;;;4.63;;
75379;SDS011;65641;44.714;37.756;2023-05-19T05:13:34;10.98;;;5.22;;
75379;SDS011;65641;44.714;37.756;2023-05-19T05:14:37;9.63;;;4.88;;
75379;SDS011;65641;44.714;37.756;2023-05-19T05:15:42;9.55;;;4.60;;
75379;SDS011;65641;44.714;37.756;2023-05-19T05:16:45;9.18;;;4.70;;
75379;SDS011;65641;44.714;37.756;2023-05-19T05:17:54;9.52;;;4.80;;
75379;SDS011;65641;44.714;37.756;2023-05-19T05:18:58;10.05;;;4.55;;
75379;SDS011;65641;44.714;37.756;2023-05-19T05:20:02;11.15;;;5.25;;
75379;SDS011;65641;44.714;37.756;2023-05-19T05:21:08;11.27;;;5.35;;
75379;SDS011;65641;44.714;37.756;2023-05-19T05:22:11;11.38;;;4.60;;
75379;SDS011;65641;44.714;37.756;2023-05-19T05:23:14;10.27;;;4.78;;
75379;SDS011;65641;44.714;37.756;2023-05-19T05:24:20;10.32;;;4.85;;
75379;SDS011;65641;44.714;37.756;2023-05-19T05:25:28;9.90;;;4.97;;
75379;SDS011;65641;44.714;37.756;2023-05-19T05:26:32;11.07;;;5.35;;
75379;SDS011;65641;44.714;37.756;2023-05-19T05:27:36;12.35;;;5.38;;
75379;SDS011;65641;44.714;37.756;2023-05-19T05:28:40;12.02;;;5.00;;
75379;SDS011;65641;44.714;37.756;2023-05-19T05:29:43;11.35;;;5.03;;
75379;SDS011;65641;44.714;37.756;2023-05-19T05:30:46;9.88;;;4.93;;
75379;SDS011;65641;44.714;37.756;2023-05-19T05:31:50;9.02;;;4.93;;
75379;SDS011;65641;44.714;37.756;2023-05-19T05:32:53;10.73;;;5.47;;
75379;SDS011;65641;44.714;37.756;2023-05-19T05:34:05;11.80;;;5.07;;
75379;SDS011;65641;44.714;37.756;2023-05-19T05:35:08;10.02;;;4.97;;
75379;SDS011;65641;44.714;37.756;2023-05-19T05:36:12;9.98;;;5.20;;
75379;SDS011;65641;44.714;37.756;2023-05-19T05:37:15;8.55;;;4.60;;
75379;SDS011;65641;44.714;37.756;2023-05-19T05:38:19;11.38;;;4.70;;
75379;SDS011;65641;44.714;37.756;2023-05-19T05:39:22;10.20;;;5.00;;
75379;SDS011;65641;44.714;37.756;2023-05-19T05:40:25;11.35;;;5.07;;
75379;SDS011;65641;44.714;37.756;2023-05-19T05:41:28;10.15;;;5.03;;
75379;SDS011;65641;44.714;37.756;2023-05-19T05:42:43;9.15;;;4.82;;
75379;SDS011;65641;44.714;37.756;2023-05-19T05:43:45;10.13;;;4.45;;
75379;SDS011;65641;44.714;37.756;2023-05-19T05:44:49;7.15;;;4.55;;
75379;SDS011;65641;44.714;37.756;2023-05-19T05:45:52;10.48;;;5.15;;
75379;SDS011;65641;44.714;37.756;2023-05-19T05:46:55;9.73;;;5.07;;
75379;SDS011;65641;44.714;37.756;2023-05-19T05:47:58;9.02;;;4.90;;
75379;SDS011;65641;44.714;37.756;2023-05-19T05:49:02;8.15;;;4.95;;
75379;SDS011;65641;44.714;37.756;2023-05-19T05:50:05;11.07;;;5.03;;
75379;SDS011;65641;44.714;37.756;2023-05-19T05:51:10;8.90;;;4.18;;
75379;SDS011;65641;44.714;37.756;2023-05-19T05:52:13;10.38;;;4.53;;
75379;SDS011;65641;44.714;37.756;2023-05-19T05:53:20;9.70;;;5.18;;
75379;SDS011;65641;44.714;37.756;2023-05-19T05:54:27;10.82;;;4.75;;
75379;SDS011;65641;44.714;37.756;2023-05-19T05:55:31;9.43;;;4.65;;
75379;SDS011;65641;44.714;37.756;2023-05-19T05:56:35;7.75;;;4.85;;
75379;SDS011;65641;44.714;37.756;2023-05-19T05:57:41;7.88;;;4.78;;
75379;SDS011;65641;44.714;37.756;2023-05-19T05:58:44;10.82;;;5.15;;
75379;SDS011;65641;44.714;37.756;2023-05-19T05:59:47;8.63;;;4.72;;
75379;SDS011;65641;44.714;37.756;2023-05-19T06:00:51;7.60;;;4.18;;
75379;SDS011;65641;44.714;37.756;2023-05-19T06:02:00;8.80;;;4.68;;
75379;SDS011;65641;44.714;37.756;2023-05-19T06:03:03;10.82;;;5.35;;
75379;SDS011;65641;44.714;37.756;2023-05-19T06:04:07;9.00;;;4.75;;
75379;SDS011;65641;44.714;37.756;2023-05-19T06:05:10;7.70;;;5.05;;
75379;SDS011;65641;44.714;37.756;2023-05-19T06:06:14;7.97;;;4.82;;
75379;SDS011;65641;44.714;37.756;2023-05-19T06:07:17;8.27;;;4.35;;
75379;SDS011;65641;44.714;37.756;2023-05-19T06:08:20;9.23;;;4.78;;
75379;SDS011;65641;44.714;37.756;2023-05-19T06:09:23;9.43;;;5.20;;
75379;SDS011;65641;44.714;37.756;2023-05-19T06:10:29;8.23;;;4.70;;
75379;SDS011;65641;44.714;37.756;2023-05-19T06:11:32;8.15;;;4.57;;
75379;SDS011;65641;44.714;37.756;2023-05-19T06:12:35;7.22;;;4.70;;
75379;SDS011;65641;44.714;37.756;2023-05-19T06:13:42;11.45;;;5.15;;
75379;SDS011;65641;44.714;37.756;2023-05-19T06:14:51;7.93;;;5.03;;
75379;SDS011;65641;44.714;37.756;2023-05-19T06:16:14;8.82;;;4.35;;
75379;SDS011;65641;44.714;37.756;2023-05-19T06:17:20;9.05;;;4.63;;
75379;SDS011;65641;44.714;37.756;2023-05-19T06:18:23;9.82;;;4.63;;
75379;SDS011;65641;44.714;37.756;2023-05-19T06:19:27;7.78;;;4.85;;
75379;SDS011;65641;44.714;37.756;2023-05-19T06:20:29;8.50;;;4.78;;
75379;SDS011;65641;44.714;37.756;2023-05-19T06:21:33;8.52;;;4.82;;
75379;SDS011;65641;44.714;37.756;2023-05-19T06:22:36;7.72;;;4.43;;
75379;SDS011;65641;44.714;37.756;2023-05-19T06:23:39;9.05;;;5.05;;
75379;SDS011;65641;44.714;37.756;2023-05-19T06:24:44;7.47;;;4.43;;
75379;SDS011;65641;44.714;37.756;2023-05-19T06:25:47;10.07;;;5.10;;
75379;SDS011;65641;44.714;37.756;2023-05-19T06:26:50;9.77;;;4.78;;
75379;SDS011;65641;44.714;37.756;2023-05-19T06:27:53;6.53;;;4.40;;
75379;SDS011;65641;44.714;37.756;2023-05-19T06:28:57;8.85;;;4.82;;
75379;SDS011;65641;44.714;37.756;2023-05-19T06:30:00;8.43;;;5.13;;
75379;SDS011;65641;44.714;37.756;2023-05-19T06:31:08;8.45;;;4.63;;
75379;SDS011;65641;44.714;37.756;2023-05-19T06:32:25;10.63;;;4.65;;
75379;SDS011;65641;44.714;37.756;2023-05-19T06:33:28;7.85;;;4.65;;
75379;SDS011;65641;44.714;37.756;2023-05-19T06:34:31;7.72;;;4.38;;
75379;SDS011;65641;44.714;37.756;2023-05-19T06:35:34;8.05;;;4.22;;
75379;SDS011;65641;44.714;37.756;2023-05-19T06:36:37;7.35;;;4.30;;
75379;SDS011;65641;44.714;37.756;2023-05-19T06:37:45;7.40;;;4.90;;
75379;SDS011;65641;44.714;37.756;2023-05-19T06:38:48;7.10;;;4.53;;
75379;SDS011;65641;44.714;37.756;2023-05-19T06:39:51;8.50;;;4.65;;
75379;SDS011;65641;44.714;37.756;2023-05-19T06:40:55;8.82;;;4.55;;
75379;SDS011;65641;44.714;37.756;2023-05-19T06:41:58;8.13;;;4.70;;
75379;SDS011;65641;44.714;37.756;2023-05-19T06:43:36;8.18;;;4.60;;
75379;SDS011;65641;44.714;37.756;2023-05-19T06:44:39;8.25;;;4.22;;